Philadelphia Business Licenses
Sidewalk Cafe

Jurisdiction: City of Philadelphia
Source: City of Philadelphia, Licenses and Inspections

This dataset includes 30 thousand businesses licensed by City of Philadelphia, Licenses and Inspections. Each business is registered with license application type, applicant, property for which the license would be issued, application date, issue date, and expiration date. Licenses are required for individuals and businesses to engage in select commercial activities. For example, vendors and restaurants require a license in order to sell goods and food and trades-people, such as plumbers and contractors, require a license in order to practice their trade.

Sidewalk Cafe · Search Result

Business Name Office Address License Type Issue / Expiration Date
Krewstown Road Ventures LLC · Curly's Pub 8929 Krewstown Rd, Philadelphia, PA 19115-4516 Sidewalk Cafe/Streetery (Temporary) 2020-08-28 ~ 2020-12-31
Agape Baptist Church · Agape Christian Cafe 1603-07 Wadsworth Ave, Philadelphia, PA 19150-1019 Sidewalk Cafe/Streetery (Temporary) 2020-08-08 ~ 2020-12-31
Sentient Androids LLC 1710 N 5th St, Philadelphia, PA 19122-2909 Sidewalk Cafe/Streetery (Temporary) 2020-07-28 ~ 2020-12-30
Maple 2102 Inc 2102 Chestnut St, Philadelphia, PA 19103-4405 Sidewalk Cafe/Streetery (Temporary) 2020-07-23 ~ 2020-12-30
Iovine Brothers Bar & Grill, Inc. · Molly Malloy'S 1136 Arch St, Unit 467, Philadelphia, PA 19107-2923 Sidewalk Cafe/Streetery (Temporary) 2020-07-18 ~ 2020-12-31
Wax and Wine LLC · Wax and Wine 1034 Pine St, Philadelphia, PA 19107-6007 Sidewalk Cafe/Streetery (Temporary) 2020-07-17 ~ 2020-12-31
Urban Outfitters Inc · Restaurant 1616-26 Walnut St, Philadelphia, PA 19103-5403 Sidewalk Cafe/Streetery (Temporary) 2020-07-15 ~ 2020-12-31
1065 Maria Inc · Jjs Cafe 1065-71 E Erie Ave, Philadelphia, PA 19124-5435 Sidewalk Cafe/Streetery (Temporary) 2020-07-15 ~ 2020-12-30
Urban Outfitters Inc · Restaurant 1939 Callowhill St, Philadelphia, PA 19130-3841 Sidewalk Cafe/Streetery (Temporary) 2020-07-15 ~ 2020-12-30
Bodega Taco Bar LLC 1223 Walnut St, Philadelphia, PA 19107-4914 Sidewalk Cafe/Streetery (Temporary) 2020-07-10 ~ 2020-12-31
Drinker Downs Inc 525 N 11th St, Philadelphia, PA 19123-3321 Sidewalk Cafe/Streetery (Temporary) 2020-07-02 ~ 2020-12-31
Aksum Group LLC · Aksum Cafe 4630 Baltimore Ave, Philadelphia, PA 19143-6608 Sidewalk Cafe/Streetery (Temporary) 2020-07-02 ~ 2020-12-31
Gabriel Lorden · Philly Bar and Restaurant 2714 Welsh Rd, Philadelphia, PA 19152-1525 Sidewalk Cafe/Streetery (Temporary) 2020-07-01 ~ 2020-12-31
Jm1115 Inc 2825-35 Cottman Ave, Philadelphia, PA 19149 Sidewalk Cafe/Streetery (Temporary) 2020-06-24 ~ 2020-12-30
Apy Lizette · Thunder Mug Cafe 4233 Ridge Ave, Philadelphia, PA 19129-1746 Sidewalk Cafe/Streetery (Temporary) 2020-06-23 ~ 2020-12-31
Lolita Restaurant Inc 104-06 S 13th St, Philadelphia, PA 19107-4532 Sidewalk Cafe/Streetery (Temporary) 2020-06-20 ~ 2020-12-31
B2g Consulting Inc · Magic Noodles 2825 Cottman Ave, Philadelphia, PA 19149 Sidewalk Cafe/Streetery (Temporary) 2020-06-19 ~ 2020-12-31
Elwolf LLC 1301 N Howard St, Philadelphia, PA 19122-4614 Sidewalk Cafe/Streetery (Temporary) 2020-06-16 ~ 2020-12-31
Support Remote · Remote Support 7500 Forrest Ave, Philadelphia, PA 19150-2202 Sidewalk Cafe/Streetery (Temporary) 2020-06-11 ~ 2020-12-31
Support Remote · Remote Support 7508 Forrest Ave, Philadelphia, PA 19150-2202 Sidewalk Cafe/Streetery (Temporary) 2020-06-11 ~ 2020-12-31
Wrap Shack 11th Street LLC 106-14 S 11th St, Philadelphia, PA 19107-4801 Sidewalk Cafe 2020-02-21 ~ 2021-02-20
Fil It Up Again LLC 436 E Girard Ave, Philadelphia, PA 19125-3326 Sidewalk Cafe 2020-10-11 ~ 2021-03-07
Tmac Holdings LLC 259-61 S 20th St, Philadelphia, PA 19103-5633 Sidewalk Cafe 2020-09-16 ~ 2021-07-12
Espresso Bookstore & Cafe Philadelphia 1632 Walnut St, Philadelphia, PA 19103-5403 Sidewalk Cafe 2019-05-10 ~ 2020-06-06
Acadia Philadelphia, LLC 824-26 S 8th St, Philadelphia, PA 19147-2821 Sidewalk Cafe 2018-06-07 ~ 2019-06-06
Shree Sai Siddhi Restaurant LLC 261 S 13th St, Philadelphia, PA 19107-5669 Sidewalk Cafe 2018-04-06 ~ 2019-04-05
J'Aime French Bakery LLC 214 S 12th St, Philadelphia, PA 19107-5514 Sidewalk Cafe 2019-11-27 ~ 2020-09-05
Wrap Shack 11th Street LLC · The Wrap Shack 106 S 11th St, Philadelphia, PA 19107-4801 Sidewalk Cafe 2019-07-30 ~ 2020-07-30
Sjp II Inc. 1827-35 Arch St, Philadelphia, PA 19103-2702 Sidewalk Cafe 2019-05-23 ~ 2020-06-20
Cafe Lift Inc 428 N 13th St, # 1a, Philadelphia, PA 19123 Sidewalk Cafe 2020-08-07 ~ 2020-11-01
Snugbar LLC 1700-20 Benjamin Franklin Pkwy, Philadelphia, PA 19103-2735 Sidewalk Cafe 2019-09-05 ~ 2020-09-22
224 S Broad LLC 220-24 S Broad St, Philadelphia, PA 19102-3816 Sidewalk Cafe 2018-05-21 ~ 2019-05-10
Grey D, LLC · Lemon Hill 747 N 25th St, Philadelphia, PA 19130-2435 Sidewalk Cafe 2016-03-09 ~ 2016-06-30
6th & Bainbridge Bar & Grill LLC 625 S 6th St, Philadelphia, PA 19147-2128 Sidewalk Cafe 2020-06-11 ~ 2021-06-30
Zio Pizza Inc 109 S 13th St, Philadelphia, PA 19107-4807 Sidewalk Cafe 2020-06-30 ~ 2021-06-30
1311 Sansom Enterprises LLC · Opa Restaurant 1311 Sansom St, Philadelphia, PA 19107-4523 Sidewalk Cafe 2020-06-11 ~ 2021-06-30
Sweet Freedom LLC 1424 South St, Philadelphia, PA 19146-1631 Sidewalk Cafe 2010-04-23 ~ 2010-06-30
La Minette LLC 623 S 6th St, Philadelphia, PA 19147-2128 Sidewalk Cafe 2020-06-11 ~ 2021-06-30
Jeralia Inc · Philadelphia Java Co 852 S 2nd St, Philadelphia, PA 19147-3430 Sidewalk Cafe 2020-06-03 ~ 2021-06-30
Good Burger Inc 1725 Chestnut St, Philadelphia, PA 19103-4115 Sidewalk Cafe 2009-06-30 ~ 2010-06-30
South Street Diner Inc 140 South St, Philadelphia, PA 19147-2415 Sidewalk Cafe 2009-06-16 ~ 2010-06-30
Schimpf Joseph Anna R 808 Almond St, Philadelphia, PA 19125-3511 Sidewalk Cafe 2007-06-07 ~ 2008-06-30
Anthonys Rotten Ralph Ltd 62 S 2nd St, Philadelphia, PA 19106-2802 Sidewalk Cafe 2020-06-18 ~ 2021-06-30
Ccmm South Street LLC · Crescent City 600 S 9th St, Philadelphia, PA 19147-2028 Sidewalk Cafe 2006-04-28 ~ 2007-06-30
225 Gjp Enterprises Inc 225 N 12th St, Philadelphia, PA 19107-1720 Sidewalk Cafe 2007-07-10 ~ 2008-06-30
Pebblebrook Hotel Lessee Inc 2029 E Walnut Ln, Philadelphia, PA 19138 Sidewalk Cafe 2005-05-18 ~ 2005-06-30
18th and Rittenhouse Sq Rest 251 W Rittenhouse St, Philadelphia, PA 19144-3311 Sidewalk Cafe 2005-03-28 ~ 2005-06-30
Cafe Nola Inc 117 A St, Philadelphia, PA 19147-2416 Sidewalk Cafe 2005-01-28 ~ 2009-06-30
Capogiro LLC 119 S 13th St, Philadelphia, PA 19107-4807 Sidewalk Cafe 2005-01-28 ~ 2009-06-30
Pyramids Inc 1501 E Passyunk Ave, Philadelphia, PA 19147-6322 Sidewalk Cafe 2005-01-28 ~ 2009-06-30
Starbucks Corporation 57 N 3rd St, Philadelphia, PA 19106-2221 Sidewalk Cafe 2005-01-27 ~ 2006-06-30
Film Fun Inc 112 S 18th St, Philadelphia, PA 19103-4901 Sidewalk Cafe 2004-12-15 ~ 2005-06-30
Act II Lp 259 S 20th St, Philadelphia, PA 19103-5633 Sidewalk Cafe 2004-08-27 ~ 2005-06-30
Cafe Spice LLC 35 S 2nd St, Philadelphia, PA 19106-3003 Sidewalk Cafe 2004-08-23 ~ 2005-06-30
224 Market LLC 224 Market St, Philadelphia, PA 19106-2815 Sidewalk Cafe 2004-08-03 ~ 2005-06-30
Anni Enterprises 1229 Spruce St, Philadelphia, PA 19107-5607 Sidewalk Cafe 2004-08-03 ~ 2005-06-30
Starr Restaurant Organization Lp · Continental Midtown 1801 Chestnut St, Philadelphia, PA 19103-3712 Sidewalk Cafe 2004-08-02 ~ 2005-06-30
Astral Plane Inc 1706 Lombard St, Philadelphia, PA 19146-1519 Sidewalk Cafe 2004-07-21 ~ 2005-06-30
Starr Restaurant Organization Lp 706 Chestnut St, Philadelphia, PA 19106-3201 Sidewalk Cafe 2004-07-21 ~ 2005-06-30
Pepe Restaurant, Inc. 115 S 2nd St, Philadelphia, PA 19147-2416 Sidewalk Cafe 2004-06-29 ~ 2005-06-30
Mc Kenna Inc 205 Chestnut St, Philadelphia, PA 19106-2808 Sidewalk Cafe 2004-06-26 ~ 2005-06-30
Washington Sq Rest Prtnrs Lp 204 W Washington Sq, Philadelphia, PA 19106-3518 Sidewalk Cafe 2004-06-21 ~ 2005-06-30
Starr Restaurant Organization Lp 121 S 13th St, Philadelphia, PA 19107-4917 Sidewalk Cafe 2004-05-25 ~ 2005-06-30
Knave of Hearts Inc 228 South St, Philadelphia, PA 19147-2310 Sidewalk Cafe 2003-07-21 ~ 2004-06-30
Sixth Street Enterprises Inc · Enterprises Inc Sixth Street 600 South St, Philadelphia, PA 19147-2102 Sidewalk Cafe 2002-07-22 ~ 2003-06-30
344 South Street Corp 344 South St, Philadelphia, PA 19147-1536 Sidewalk Cafe/Streetery (Temporary) 2020-10-13 ~ 2020-12-31
2 St Tavern · Mifflin Tavern 1843 S 2nd St, Philadelphia, PA 19148-1946 Sidewalk Cafe/Streetery (Temporary) 2020-10-13 ~ 2020-12-30
Jasmine Rice Rittenhouse LLC 1602 Spruce St, Philadelphia, PA 19103-6722 Sidewalk Cafe/Streetery (Temporary) 2020-10-13 ~ 2020-12-30
Kretschman Eric · Eric Kretschman 4411 Main St, Philadelphia, PA 19127-1311 Sidewalk Cafe/Streetery (Temporary) 2020-10-08 ~ 2020-12-31
Pure Vida Inc · Pura Vida 527 Fairmount Ave, Philadelphia, PA 19123-2809 Sidewalk Cafe/Streetery (Temporary) 2020-10-07 ~ 2020-12-30
Anggrianto LLC 113 Chestnut St, Philadelphia, PA 19106-3008 Sidewalk Cafe/Streetery (Temporary) 2020-10-06 ~ 2020-12-31
Xia Dongtian · Dongtian Xia 225 N 11th St, Philadelphia, PA 19107-1821 Sidewalk Cafe/Streetery (Temporary) 2020-10-04 ~ 2020-12-30
Crab Du Jour of Broad Inc 822 N Broad St, Philadelphia, PA 19130-2235 Sidewalk Cafe/Streetery (Temporary) 2020-10-04 ~ 2020-12-30
Paletas Y Helados Bambino Inc 1142 S 9th St, Philadelphia, PA 19147-4629 Sidewalk Cafe/Streetery (Temporary) 2020-10-02 ~ 2020-12-31
Cherry St Tavern Inc 129 N 22nd St, Philadelphia, PA 19103-1021 Sidewalk Cafe/Streetery (Temporary) 2020-10-02 ~ 2020-12-31
Jimenez Dionicio · Dionicio Jimenez 1134 S 9th St, Philadelphia, PA 19147-4610 Sidewalk Cafe/Streetery (Temporary) 2020-10-02 ~ 2020-12-31
Decristofaro (juve LLC) Salvatore · Figs Restaurant 2501 Meredith St, Philadelphia, PA 19130-2421 Sidewalk Cafe/Streetery (Temporary) 2020-10-02 ~ 2020-12-31
El Bocado Inc 1001 E Passyunk Ave, Philadelphia, PA 19147-4701 Sidewalk Cafe/Streetery (Temporary) 2020-10-01 ~ 2020-12-30
Cambur Pinton, Inc. 524 S 4th St, Philadelphia, PA 19147-1540 Sidewalk Cafe/Streetery (Temporary) 2020-10-01 ~ 2020-12-30
L Angolo Ajc · Langolo Restaurant 1415 Porter St, Philadelphia, PA 19145-4432 Sidewalk Cafe/Streetery (Temporary) 2020-10-01 ~ 2020-12-30
Abdumulla Zakaria · Zakaria Abdumulla 4421 Chestnut St, Philadelphia, PA 19104-2913 Sidewalk Cafe/Streetery (Temporary) 2020-09-30 ~ 2020-12-31
Ants Pants On 4th, LLC 526 S 4th St, Philadelphia, PA 19147-1540 Sidewalk Cafe/Streetery (Temporary) 2020-09-30 ~ 2020-12-31
O Mares Irish Pub 10253 Bustleton Ave, Philadelphia, PA 19116-3705 Sidewalk Cafe/Streetery (Temporary) 2020-09-30 ~ 2020-12-31
M2oenterprisephilly 701 S 5th St, Philadelphia, PA 19147-3005 Sidewalk Cafe/Streetery (Temporary) 2020-09-30 ~ 2020-12-31
Mole Poblano Restaurant Inc 1144 S 9th St, Philadelphia, PA 19147-4629 Sidewalk Cafe/Streetery (Temporary) 2020-09-30 ~ 2020-12-31
Drc Spruce Street LLC 2201 Spruce St, Philadelphia, PA 19103-5517 Sidewalk Cafe/Streetery (Temporary) 2020-09-29 ~ 2020-12-31
Just Salad Upenn LLC 3700-12 Spruce St, Philadelphia, PA 19104-6025 Sidewalk Cafe/Streetery (Temporary) 2020-09-28 ~ 2020-12-30
Moving On Up Inc 2047 Green St, Philadelphia, PA 19130-3208 Sidewalk Cafe/Streetery (Temporary) 2020-09-28 ~ 2020-12-30
Szep LLC · Huda Phl 32 S 18th St, Philadelphia, PA 19103-3719 Sidewalk Cafe/Streetery (Temporary) 2020-09-25 ~ 2020-12-31
Bourbon & Branch, LLC · Bourbon and Branch 705 N 2nd St, Philadelphia, PA 19123-3007 Sidewalk Cafe/Streetery (Temporary) 2020-09-24 ~ 2020-12-31
Que Chula Es Puebla Restaurant Inc 1356 N 2nd St, Philadelphia, PA 19122-4504 Sidewalk Cafe/Streetery (Temporary) 2020-09-24 ~ 2020-12-31
Fdf LLC 3572 Indian Queen Ln, Philadelphia, PA 19129-1523 Sidewalk Cafe/Streetery (Temporary) 2020-09-24 ~ 2020-12-31
Rim Cafe LLC 1170 S 9th St, Philadelphia, PA 19147-4631 Sidewalk Cafe/Streetery (Temporary) 2020-09-24 ~ 2020-12-31
Wanted Ace LLC · Toasted Walnut 1316 Walnut St, Philadelphia, PA 19107-5410 Sidewalk Cafe/Streetery (Temporary) 2020-09-23 ~ 2020-12-31
Jembatan 5 LLC 932 S 10th St, Philadelphia, PA 19147-3740 Sidewalk Cafe/Streetery (Temporary) 2020-09-23 ~ 2020-12-31
Torre Del Greco Pizza LLC 250 Catharine St, Philadelphia, PA 19147-3303 Sidewalk Cafe/Streetery (Temporary) 2020-09-21 ~ 2020-12-31
Spice C Inc 131 NORTH 10TH STREET PHILADELPHIA, PA 19107 Sidewalk Cafe/Streetery (Temporary) 2020-09-21 ~ 2020-12-30
Supreme Pizzeria & Bakery LLC 7514 Castor Ave, Philadelphia, PA 19152-4002 Sidewalk Cafe/Streetery (Temporary) 2020-09-20 ~ 2020-12-30
207 Chestnut St Assoc. LLC · Lucha Cartel 205 Chestnut St, Philadelphia, PA 19106-2808 Sidewalk Cafe/Streetery (Temporary) 2020-09-18 ~ 2020-12-31
Sabrinas Callowhill · Sabrina's & Spencer'S 1802 Callowhill St, Philadelphia, PA 19130-4110 Sidewalk Cafe/Streetery (Temporary) 2020-09-18 ~ 2020-12-31